Time;durP1;ratioP1;P1;durP2;ratioP2;P2;SDS_P1;SDS_P2;PMS_P1;PMS_P2;Temp;Humidity;BMP_temperature;BMP_pressure;BME280_temperature;BME280_humidity;BME280_pressure;Samples;Min_cycle;Max_cycle;Signal;HPM_P1;HPM_P2
2021/07/24 00:02:22;;;;;;;7.60;4.73;;;21.60;61.10;;;;;;20913522;28;20516;-19
2021/07/24 00:12:23;;;;;;;7.50;4.22;;;21.70;61.40;;;;;;20912780;28;20479;-19
2021/07/24 00:22:23;;;;;;;7.25;3.85;;;21.60;61.70;;;;;;20911230;28;20485;-19
2021/07/24 00:32:26;;;;;;;9.55;4.28;;;21.60;62.00;;;;;;20909437;28;20037;-19
2021/07/24 00:42:30;;;;;;;7.53;3.80;;;21.60;61.90;;;;;;20910355;28;20049;-19
2021/07/24 00:52:31;;;;;;;6.85;4.10;;;21.50;61.90;;;;;;20909400;28;20025;-19
2021/07/24 01:02:31;;;;;;;5.90;4.13;;;21.50;61.80;;;;;;20900960;28;20630;-20
2021/07/24 01:12:36;;;;;;;5.47;3.17;;;21.60;61.80;;;;;;20905892;28;20108;-19
2021/07/24 01:22:36;;;;;;;4.57;3.40;;;21.60;61.80;;;;;;20908519;28;20033;-19
2021/07/24 01:32:37;;;;;;;7.25;3.75;;;21.60;61.70;;;;;;20917098;28;20098;-20
2021/07/24 01:42:38;;;;;;;5.22;3.97;;;21.60;61.70;;;;;;20907412;28;20041;-19
2021/07/24 01:52:48;;;;;;;5.25;3.92;;;21.60;61.70;;;;;;20910717;28;20032;-19
2021/07/24 02:02:52;;;;;;;6.05;4.45;;;21.60;61.60;;;;;;20909740;28;20029;-19
2021/07/24 02:12:52;;;;;;;5.57;3.83;;;21.60;61.60;;;;;;20908838;28;20426;-19
2021/07/24 02:22:55;;;;;;;6.57;4.43;;;21.60;61.60;;;;;;20908018;28;20033;-19
2021/07/24 02:32:55;;;;;;;5.95;3.95;;;21.50;61.50;;;;;;20907555;28;20039;-19
2021/07/24 02:42:56;;;;;;;6.57;3.72;;;21.50;61.40;;;;;;20909681;28;20072;-19
2021/07/24 02:52:56;;;;;;;9.65;4.72;;;21.60;61.40;;;;;;20909297;28;20507;-19
2021/07/24 03:02:57;;;;;;;6.35;3.63;;;21.60;61.50;;;;;;20903632;28;20053;-19
2021/07/24 03:12:58;;;;;;;7.78;4.25;;;21.50;61.40;;;;;;20902153;28;20061;-19
2021/07/24 03:22:59;;;;;;;4.75;3.15;;;21.50;61.40;;;;;;20902328;28;20045;-19
2021/07/24 03:33:00;;;;;;;5.53;3.60;;;21.50;61.40;;;;;;20902063;28;20029;-20
2021/07/24 03:43:01;;;;;;;5.32;3.70;;;21.50;61.40;;;;;;20901658;28;20033;-19
2021/07/24 03:53:01;;;;;;;5.03;3.28;;;21.60;61.50;;;;;;20900462;28;20039;-19
2021/07/24 04:03:02;;;;;;;5.28;3.58;;;21.50;61.40;;;;;;20901659;28;20532;-19
2021/07/24 04:13:04;;;;;;;7.75;4.30;;;21.50;61.40;;;;;;20915293;28;20050;-19
2021/07/24 04:23:05;;;;;;;5.15;3.58;;;21.50;61.40;;;;;;20913339;28;20039;-20
2021/07/24 04:33:06;;;;;;;7.35;4.15;;;21.50;61.40;;;;;;20911095;28;20061;-19
2021/07/24 04:43:06;;;;;;;5.45;4.40;;;21.50;61.40;;;;;;20910718;28;20040;-20
2021/07/24 04:53:07;;;;;;;7.07;4.20;;;21.50;61.30;;;;;;20911470;28;20714;-18
2021/07/24 05:03:07;;;;;;;5.73;4.27;;;21.50;61.30;;;;;;20909304;28;20467;-20
2021/07/24 05:13:08;;;;;;;5.00;4.10;;;21.50;61.30;;;;;;20908714;28;20446;-20
2021/07/24 05:23:10;;;;;;;5.35;3.70;;;21.50;61.30;;;;;;20906844;28;20037;-20
2021/07/24 05:33:11;;;;;;;4.82;4.15;;;21.50;61.30;;;;;;20906434;28;20040;-19
2021/07/24 05:43:11;;;;;;;8.57;4.03;;;21.50;61.30;;;;;;20911356;28;20473;-19
2021/07/24 05:53:12;;;;;;;4.68;3.92;;;21.50;61.20;;;;;;20908603;28;20067;-19
2021/07/24 06:03:14;;;;;;;5.18;3.95;;;21.50;61.30;;;;;;20903143;28;20025;-20
2021/07/24 06:13:16;;;;;;;5.85;4.28;;;21.50;61.20;;;;;;20904254;28;20033;-20
2021/07/24 06:23:18;;;;;;;14.48;4.82;;;21.50;61.20;;;;;;20905349;28;20036;-20
2021/07/24 06:33:19;;;;;;;6.97;5.30;;;21.50;61.50;;;;;;20909525;28;20036;-19
2021/07/24 06:43:19;;;;;;;14.07;4.32;;;21.50;61.60;;;;;;20903912;28;20029;-18
2021/07/24 06:53:20;;;;;;;17.70;5.22;;;21.50;61.60;;;;;;20903882;28;20024;-19
2021/07/24 07:03:20;;;;;;;12.48;5.88;;;21.50;62.00;;;;;;20902678;28;20029;-18
2021/07/24 07:13:22;;;;;;;5.60;4.00;;;21.50;61.60;;;;;;20901971;28;20041;-20
2021/07/24 07:23:22;;;;;;;11.80;4.78;;;21.50;61.60;;;;;;20902458;28;20039;-20
2021/07/24 07:33:23;;;;;;;16.75;5.05;;;21.50;61.70;;;;;;20903569;28;20159;-19
2021/07/24 07:43:23;;;;;;;29.43;6.77;;;21.60;61.50;;;;;;20910780;28;20215;-19
2021/07/24 07:53:24;;;;;;;20.17;6.70;;;21.50;61.30;;;;;;20917651;28;20057;-19
2021/07/24 08:03:27;;;;;;;13.02;5.80;;;21.60;60.90;;;;;;20917729;28;20132;-20
2021/07/24 08:13:28;;;;;;;11.10;5.13;;;21.60;60.60;;;;;;20916427;28;20021;-17
2021/07/24 08:23:28;;;;;;;11.07;4.75;;;21.50;60.50;;;;;;20916115;28;20493;-19
2021/07/24 08:33:29;;;;;;;9.63;5.20;;;21.60;60.40;;;;;;20917520;28;20517;-19
2021/07/24 08:43:29;;;;;;;9.65;5.40;;;21.60;60.10;;;;;;20925814;28;20025;-19
2021/07/24 08:53:33;;;;;;;8.07;4.70;;;21.60;60.10;;;;;;20915136;28;20500;-19
2021/07/24 09:03:34;;;;;;;10.95;4.38;;;21.70;60.00;;;;;;20913201;28;20044;-18
2021/07/24 09:13:34;;;;;;;7.05;4.22;;;21.60;60.00;;;;;;20908619;28;20017;-18
2021/07/24 09:23:36;;;;;;;5.53;4.60;;;21.60;60.10;;;;;;20907976;28;20060;-19
2021/07/24 09:33:49;;;;;;;15.35;5.15;;;21.80;60.50;;;;;;20906011;28;20098;-19
2021/07/24 09:43:58;;;;;;;8.85;5.65;;;21.90;60.40;;;;;;20907740;28;20037;-20
2021/07/24 09:53:59;;;;;;;9.13;6.22;;;21.80;60.30;;;;;;20904228;28;20025;-19
2021/07/24 10:04:02;;;;;;;11.73;6.60;;;22.00;61.00;;;;;;20927967;28;20105;-20
2021/07/24 10:14:04;;;;;;;15.93;7.15;;;21.90;60.60;;;;;;20909297;28;20044;-18
2021/07/24 10:24:04;;;;;;;11.07;6.40;;;22.00;60.50;;;;;;20902260;28;20061;-19
2021/07/24 10:34:07;;;;;;;10.68;7.00;;;22.00;60.50;;;;;;20900701;28;20094;-19
2021/07/24 10:44:10;;;;;;;15.38;6.47;;;21.90;61.30;;;;;;20901941;28;20130;-32
2021/07/24 10:54:11;;;;;;;16.40;7.07;;;21.90;61.40;;;;;;20904061;28;20405;-19
2021/07/24 11:04:37;;;;;;;16.65;5.72;;;22.00;61.90;;;;;;20899960;28;20029;-20
2021/07/24 11:14:43;;;;;;;13.85;6.78;;;22.30;61.70;;;;;;20900019;28;20406;-19
2021/07/24 11:25:04;;;;;;;12.68;7.50;;;22.10;61.80;;;;;;20917050;28;20056;-19
2021/07/24 11:35:10;;;;;;;16.25;7.32;;;22.00;62.10;;;;;;20915494;28;20399;-20
2021/07/24 11:45:19;;;;;;;12.65;7.95;;;22.00;62.80;;;;;;20917465;28;20040;-19
2021/07/24 11:55:29;;;;;;;;;;;22.00;62.30;;;;;;20918613;28;20510;-19
2021/07/24 12:05:30;;;;;;;14.63;7.47;;;22.00;62.20;;;;;;20919775;28;19911;-20
2021/07/24 12:16:00;;;;;;;16.08;7.28;;;22.00;62.10;;;;;;20930528;28;20057;-20
2021/07/24 12:26:18;;;;;;;16.27;8.00;;;22.10;62.10;;;;;;20914703;28;20083;-20
2021/07/24 12:36:22;;;;;;;12.33;8.27;;;22.10;62.10;;;;;;20915393;28;20381;-18
2021/07/24 12:46:22;;;;;;;12.23;8.13;;;22.10;61.80;;;;;;20910539;28;20509;-20
2021/07/24 12:56:23;;;;;;;10.05;7.22;;;22.10;61.90;;;;;;20911630;28;20029;-20
2021/07/24 13:06:28;;;;;;;12.30;7.05;;;22.10;61.90;;;;;;20914556;28;20040;-19
2021/07/24 13:16:32;;;;;;;9.07;7.18;;;22.10;61.90;;;;;;20917212;28;20028;-19
2021/07/24 13:36:45;;;;;;;9.25;6.65;;;22.10;61.90;;;;;;20914332;28;20079;-19
2021/07/24 13:46:45;;;;;;;7.10;5.88;;;22.10;61.80;;;;;;20932095;23;20045;-20
2021/07/24 13:56:46;;;;;;;10.85;6.57;;;22.10;61.80;;;;;;20906555;28;20108;-20
2021/07/24 14:06:46;;;;;;;8.02;6.32;;;22.10;61.80;;;;;;20906282;28;20539;-20
2021/07/24 14:16:47;;;;;;;7.88;5.85;;;22.10;61.70;;;;;;20905463;28;20397;-20
2021/07/24 14:26:47;;;;;;;9.45;7.15;;;22.10;61.70;;;;;;20905293;28;20371;-20
2021/07/24 14:36:48;;;;;;;9.30;6.90;;;22.10;61.80;;;;;;20904394;28;20033;-21
2021/07/24 14:46:49;;;;;;;6.90;6.20;;;22.20;61.80;;;;;;20903091;28;20570;-20
2021/07/24 14:56:54;;;;;;;8.43;6.55;;;22.20;61.80;;;;;;20898955;28;20086;-22
2021/07/24 15:06:55;;;;;;;7.43;5.47;;;22.10;62.20;;;;;;20899082;28;20033;-19
2021/07/24 15:16:55;;;;;;;7.63;6.30;;;22.10;61.70;;;;;;20900038;28;20112;-19
2021/07/24 15:26:56;;;;;;;10.18;6.72;;;22.10;61.80;;;;;;20904002;28;20484;-20
2021/07/24 15:36:57;;;;;;;7.43;6.57;;;22.10;61.80;;;;;;20895298;28;20108;-21
2021/07/24 15:46:58;;;;;;;8.48;5.90;;;22.10;61.70;;;;;;20902443;28;20106;-20
2021/07/24 15:56:58;;;;;;;7.30;6.43;;;22.10;61.80;;;;;;20899865;28;20029;-21
2021/07/24 16:06:59;;;;;;;8.27;5.97;;;22.10;61.90;;;;;;20907918;28;20465;-20
2021/07/24 16:17:02;;;;;;;7.80;6.95;;;22.10;61.90;;;;;;20911141;28;20037;-20
2021/07/24 16:27:03;;;;;;;7.00;5.70;;;22.10;61.90;;;;;;20910665;28;20059;-19
2021/07/24 16:37:03;;;;;;;7.57;5.43;;;22.00;61.90;;;;;;20925921;28;20033;-21
2021/07/24 16:47:04;;;;;;;9.60;6.00;;;22.10;61.90;;;;;;20913539;28;20578;-20
2021/07/24 16:57:04;;;;;;;6.10;5.03;;;22.00;61.90;;;;;;20908391;28;20033;-20
2021/07/24 17:07:08;;;;;;;6.22;5.20;;;22.00;62.00;;;;;;20906618;28;20056;-20
2021/07/24 17:17:10;;;;;;;7.30;5.50;;;22.00;62.50;;;;;;20905421;28;20382;-20
2021/07/24 17:27:10;;;;;;;6.38;5.10;;;22.10;62.10;;;;;;20904978;28;20029;-20
2021/07/24 17:37:11;;;;;;;5.20;4.70;;;22.00;62.10;;;;;;20906595;28;20082;-20
2021/07/24 17:47:11;;;;;;;6.80;5.18;;;22.00;62.10;;;;;;20910616;28;20075;-20
2021/07/24 17:57:12;;;;;;;7.45;6.05;;;22.00;62.20;;;;;;20925091;28;20029;-20
2021/07/24 18:07:12;;;;;;;5.60;5.00;;;21.90;62.10;;;;;;20908289;28;20029;-21
2021/07/24 18:17:13;;;;;;;7.25;5.07;;;21.90;62.20;;;;;;20905508;28;20086;-21
2021/07/24 18:27:13;;;;;;;7.22;5.85;;;21.90;62.20;;;;;;20904137;28;20025;-20
2021/07/24 18:37:14;;;;;;;5.80;5.20;;;21.90;62.20;;;;;;20903459;28;20032;-20
2021/07/24 18:47:14;;;;;;;5.78;4.88;;;21.90;62.10;;;;;;20902129;28;20441;-21
2021/07/24 18:57:15;;;;;;;6.65;5.95;;;21.90;62.10;;;;;;20902389;28;20049;-21
2021/07/24 19:07:19;;;;;;;5.85;4.68;;;21.90;62.20;;;;;;20900625;28;20082;-20
2021/07/24 19:17:19;;;;;;;6.38;5.60;;;21.90;62.20;;;;;;20901096;28;20025;-21
2021/07/24 19:27:20;;;;;;;6.22;5.70;;;21.90;62.20;;;;;;20901884;28;20504;-21
2021/07/24 19:37:21;;;;;;;5.80;4.78;;;21.90;62.30;;;;;;20903977;28;20366;-21
2021/07/24 19:47:22;;;;;;;6.47;5.65;;;21.90;62.40;;;;;;20902526;23;20046;-20
2021/07/24 19:57:23;;;;;;;5.80;5.20;;;21.90;62.40;;;;;;20833321;28;20059;-21
2021/07/24 20:07:23;;;;;;;6.28;4.50;;;21.80;62.40;;;;;;20833273;28;20068;-21
2021/07/24 20:17:24;;;;;;;7.43;5.30;;;21.90;62.50;;;;;;20832858;28;20492;-20
2021/07/24 20:27:24;;;;;;;6.13;5.53;;;21.80;62.40;;;;;;20831752;28;20132;-20
2021/07/24 20:37:26;;;;;;;6.22;4.88;;;21.90;62.40;;;;;;20820398;28;20462;-20
2021/07/24 20:47:26;;;;;;;5.35;4.40;;;21.90;62.60;;;;;;20781214;28;20037;-20
2021/07/24 20:57:27;;;;;;;7.63;5.22;;;21.90;62.90;;;;;;20835330;28;20105;-20
2021/07/24 21:07:27;;;;;;;20.90;7.05;;;21.90;63.20;;;;;;20820108;28;20033;-20
2021/07/24 21:17:28;;;;;;;25.42;7.15;;;21.90;65.10;;;;;;20743676;28;20505;-19
2021/07/24 21:27:29;;;;;;;7.47;5.53;;;21.90;65.30;;;;;;20785611;28;20032;-20
2021/07/24 21:37:29;;;;;;;16.17;7.55;;;21.90;65.60;;;;;;20847231;28;20388;-20
2021/07/24 21:47:32;;;;;;;12.85;6.40;;;21.90;66.10;;;;;;20851679;28;20059;-21
2021/07/24 21:57:36;;;;;;;10.10;7.03;;;21.90;66.00;;;;;;20853897;28;20028;-21
2021/07/24 22:07:36;;;;;;;9.00;6.72;;;21.90;66.10;;;;;;20858247;28;20057;-21
2021/07/24 22:17:37;;;;;;;9.90;6.63;;;21.90;66.30;;;;;;20813232;28;20034;-20
2021/07/24 22:27:38;;;;;;;10.70;7.50;;;21.90;66.30;;;;;;20840731;28;20037;-20
2021/07/24 22:37:38;;;;;;;9.32;6.88;;;21.90;66.10;;;;;;20843159;28;20075;-20
2021/07/24 22:47:39;;;;;;;8.70;7.50;;;21.90;66.10;;;;;;20844230;28;20073;-20
2021/07/24 22:57:40;;;;;;;8.90;7.05;;;21.90;66.40;;;;;;20847061;28;20033;-20
2021/07/24 23:07:40;;;;;;;11.15;8.18;;;21.90;66.80;;;;;;20847051;28;20037;-20
2021/07/24 23:17:41;;;;;;;7.45;6.68;;;21.90;66.90;;;;;;20847942;28;20044;-20
2021/07/24 23:27:41;;;;;;;8.15;7.15;;;21.90;66.70;;;;;;20838324;28;20029;-20
2021/07/24 23:37:42;;;;;;;8.18;6.85;;;21.90;66.80;;;;;;20840082;28;20447;-20
2021/07/24 23:47:42;;;;;;;8.70;7.68;;;21.90;66.70;;;;;;20841544;28;20029;-20
2021/07/24 23:57:43;;;;;;;9.00;7.75;;;21.90;66.80;;;;;;20829464;28;20033;-19
